CheckWX is a tool to help pilots better visualize weather data.  It is not intended as a substitute for an official pre-flight weather briefing.

21:04:14 UTC

KLDJ METAR
Linden Airport
Linden, New Jersey, USA
Current

9 mins ago

KLDJ 232055Z AUTO 00000KT 10SM CLR 03/M02 A3039 RMK AO2 T00331024
Observed
Feb-23 @ 20:55 UTC
Visibility
10 SM
Flight Rules
VFR
Cloud Levels
  • Clear skies
Temperature
C / 37°F
Dewpoint
-2°C / 28°F
Humidity
70%
Altimeter
30.39" Hg
Pressure
1029.11 hPa
Previous

29 mins ago

KLDJ 232035Z AUTO 00000KT 10SM CLR 03/M02 A3039 RMK AO2 T00331025
Observed
Feb-23 @ 20:35 UTC
Visibility
10 SM
Flight Rules
VFR
Cloud Levels
  • Clear skies
Temperature
C / 37°F
Dewpoint
-3°C / 27°F
Humidity
65%
Altimeter
30.39" Hg
Pressure
1029.11 hPa
Previous

49 mins ago

KLDJ 232015Z AUTO 00000KT 10SM CLR 03/M03 A3040 RMK AO2 T00331029
Observed
Feb-23 @ 20:15 UTC
Visibility
10 SM
Flight Rules
VFR
Cloud Levels
  • Clear skies
Temperature
C / 37°F
Dewpoint
-3°C / 27°F
Humidity
65%
Altimeter
30.4" Hg
Pressure
1029.41 hPa